sensor_id;sensor_type;location;lat;lon;timestamp;P1;durP1;ratioP1;P2;durP2;ratioP2
64842;SDS011;51310;52.198;5.422;2022-12-13T00:01:43;44.47;;;20.55;;
64842;SDS011;51310;52.198;5.422;2022-12-13T00:04:14;45.17;;;21.30;;
64842;SDS011;51310;52.198;5.422;2022-12-13T00:06:40;40.63;;;20.17;;
64842;SDS011;51310;52.198;5.422;2022-12-13T00:09:06;42.65;;;19.27;;
64842;SDS011;51310;52.198;5.422;2022-12-13T00:11:32;41.40;;;20.30;;
64842;SDS011;51310;52.198;5.422;2022-12-13T00:13:58;43.92;;;22.02;;
64842;SDS011;51310;52.198;5.422;2022-12-13T00:16:25;43.13;;;21.00;;
64842;SDS011;51310;52.198;5.422;2022-12-13T00:18:52;37.60;;;19.50;;
64842;SDS011;51310;52.198;5.422;2022-12-13T00:21:26;41.85;;;20.48;;
64842;SDS011;51310;52.198;5.422;2022-12-13T00:23:56;41.40;;;20.57;;
64842;SDS011;51310;52.198;5.422;2022-12-13T00:26:25;45.92;;;20.25;;
64842;SDS011;51310;52.198;5.422;2022-12-13T00:28:56;39.07;;;19.67;;
64842;SDS011;51310;52.198;5.422;2022-12-13T00:31:29;40.38;;;20.27;;
64842;SDS011;51310;52.198;5.422;2022-12-13T00:33:56;41.15;;;19.67;;
64842;SDS011;51310;52.198;5.422;2022-12-13T00:36:25;42.20;;;20.10;;
64842;SDS011;51310;52.198;5.422;2022-12-13T00:38:51;40.67;;;19.20;;
64842;SDS011;51310;52.198;5.422;2022-12-13T00:41:37;37.53;;;19.33;;
64842;SDS011;51310;52.198;5.422;2022-12-13T00:44:05;46.33;;;20.73;;
64842;SDS011;51310;52.198;5.422;2022-12-13T00:46:31;43.92;;;19.67;;
64842;SDS011;51310;52.198;5.422;2022-12-13T00:48:58;48.90;;;21.63;;
64842;SDS011;51310;52.198;5.422;2022-12-13T00:51:26;41.63;;;19.00;;
64842;SDS011;51310;52.198;5.422;2022-12-13T00:53:56;41.17;;;19.08;;
64842;SDS011;51310;52.198;5.422;2022-12-13T00:56:25;36.33;;;18.50;;
64842;SDS011;51310;52.198;5.422;2022-12-13T00:58:56;39.45;;;18.83;;
64842;SDS011;51310;52.198;5.422;2022-12-13T01:01:27;43.15;;;19.77;;
64842;SDS011;51310;52.198;5.422;2022-12-13T01:03:58;40.70;;;19.75;;
64842;SDS011;51310;52.198;5.422;2022-12-13T01:06:28;43.87;;;20.43;;
64842;SDS011;51310;52.198;5.422;2022-12-13T01:09:06;45.40;;;20.90;;
64842;SDS011;51310;52.198;5.422;2022-12-13T01:11:43;42.97;;;20.33;;
64842;SDS011;51310;52.198;5.422;2022-12-13T01:14:10;40.85;;;20.17;;
64842;SDS011;51310;52.198;5.422;2022-12-13T01:16:36;42.00;;;19.85;;
64842;SDS011;51310;52.198;5.422;2022-12-13T01:19:02;45.10;;;20.40;;
64842;SDS011;51310;52.198;5.422;2022-12-13T01:21:29;44.40;;;20.70;;
64842;SDS011;51310;52.198;5.422;2022-12-13T01:23:58;37.95;;;20.95;;
64842;SDS011;51310;52.198;5.422;2022-12-13T01:26:29;41.40;;;21.02;;
64842;SDS011;51310;52.198;5.422;2022-12-13T01:28:56;43.25;;;19.60;;
64842;SDS011;51310;52.198;5.422;2022-12-13T01:31:22;48.85;;;22.58;;
64842;SDS011;51310;52.198;5.422;2022-12-13T01:33:48;42.33;;;20.00;;
64842;SDS011;51310;52.198;5.422;2022-12-13T01:36:19;40.65;;;20.40;;
64842;SDS011;51310;52.198;5.422;2022-12-13T01:38:46;54.90;;;23.93;;
64842;SDS011;51310;52.198;5.422;2022-12-13T01:41:16;44.45;;;22.15;;
64842;SDS011;51310;52.198;5.422;2022-12-13T01:46:11;46.92;;;22.10;;
64842;SDS011;51310;52.198;5.422;2022-12-13T01:48:41;48.22;;;21.20;;
64842;SDS011;51310;52.198;5.422;2022-12-13T01:51:21;49.45;;;21.85;;
64842;SDS011;51310;52.198;5.422;2022-12-13T01:54:10;47.50;;;21.85;;
64842;SDS011;51310;52.198;5.422;2022-12-13T01:56:44;42.70;;;21.02;;
64842;SDS011;51310;52.198;5.422;2022-12-13T01:59:17;42.05;;;20.30;;
64842;SDS011;51310;52.198;5.422;2022-12-13T02:01:45;45.22;;;21.20;;
64842;SDS011;51310;52.198;5.422;2022-12-13T02:04:29;42.80;;;21.05;;
64842;SDS011;51310;52.198;5.422;2022-12-13T02:07:06;47.07;;;20.73;;
64842;SDS011;51310;52.198;5.422;2022-12-13T02:09:33;45.05;;;21.00;;
64842;SDS011;51310;52.198;5.422;2022-12-13T02:12:01;46.75;;;21.50;;
64842;SDS011;51310;52.198;5.422;2022-12-13T02:14:28;40.97;;;20.17;;
64842;SDS011;51310;52.198;5.422;2022-12-13T02:17:00;43.38;;;20.63;;
64842;SDS011;51310;52.198;5.422;2022-12-13T02:29:41;39.40;;;19.92;;
64842;SDS011;51310;52.198;5.422;2022-12-13T02:33:05;43.20;;;19.75;;
64842;SDS011;51310;52.198;5.422;2022-12-13T02:38:32;44.73;;;20.10;;
64842;SDS011;51310;52.198;5.422;2022-12-13T02:41:21;37.78;;;19.50;;
64842;SDS011;51310;52.198;5.422;2022-12-13T02:46:45;44.25;;;20.88;;
64842;SDS011;51310;52.198;5.422;2022-12-13T02:49:30;39.83;;;19.80;;
64842;SDS011;51310;52.198;5.422;2022-12-13T02:52:02;41.28;;;19.70;;
64842;SDS011;51310;52.198;5.422;2022-12-13T02:54:33;43.15;;;21.17;;
64842;SDS011;51310;52.198;5.422;2022-12-13T02:57:01;40.20;;;19.85;;
64842;SDS011;51310;52.198;5.422;2022-12-13T02:59:30;40.63;;;19.80;;
64842;SDS011;51310;52.198;5.422;2022-12-13T03:02:16;45.13;;;18.92;;
64842;SDS011;51310;52.198;5.422;2022-12-13T03:08:24;46.03;;;20.10;;
64842;SDS011;51310;52.198;5.422;2022-12-13T03:11:32;39.83;;;19.67;;
64842;SDS011;51310;52.198;5.422;2022-12-13T03:18:08;46.92;;;20.88;;
64842;SDS011;51310;52.198;5.422;2022-12-13T03:20:46;45.05;;;20.63;;
64842;SDS011;51310;52.198;5.422;2022-12-13T03:23:23;43.45;;;19.73;;
64842;SDS011;51310;52.198;5.422;2022-12-13T03:25:52;42.35;;;19.58;;
64842;SDS011;51310;52.198;5.422;2022-12-13T03:28:49;44.53;;;20.63;;
64842;SDS011;51310;52.198;5.422;2022-12-13T03:31:15;39.33;;;19.08;;
64842;SDS011;51310;52.198;5.422;2022-12-13T03:33:42;39.07;;;19.07;;
64842;SDS011;51310;52.198;5.422;2022-12-13T03:36:08;40.15;;;19.20;;
64842;SDS011;51310;52.198;5.422;2022-12-13T03:38:35;43.95;;;19.63;;
64842;SDS011;51310;52.198;5.422;2022-12-13T03:41:08;40.50;;;18.45;;
64842;SDS011;51310;52.198;5.422;2022-12-13T03:43:43;39.45;;;19.63;;
64842;SDS011;51310;52.198;5.422;2022-12-13T03:46:09;39.65;;;20.20;;
64842;SDS011;51310;52.198;5.422;2022-12-13T03:48:35;44.03;;;19.73;;
64842;SDS011;51310;52.198;5.422;2022-12-13T03:51:01;42.17;;;19.02;;
64842;SDS011;51310;52.198;5.422;2022-12-13T03:53:28;35.95;;;19.25;;
64842;SDS011;51310;52.198;5.422;2022-12-13T03:55:54;43.15;;;19.50;;
64842;SDS011;51310;52.198;5.422;2022-12-13T03:58:20;40.27;;;19.03;;
64842;SDS011;51310;52.198;5.422;2022-12-13T04:00:47;39.25;;;19.05;;
64842;SDS011;51310;52.198;5.422;2022-12-13T04:03:13;45.03;;;19.52;;
64842;SDS011;51310;52.198;5.422;2022-12-13T04:05:39;38.63;;;18.40;;
64842;SDS011;51310;52.198;5.422;2022-12-13T04:08:05;41.92;;;19.20;;
64842;SDS011;51310;52.198;5.422;2022-12-13T04:10:31;42.28;;;19.05;;
64842;SDS011;51310;52.198;5.422;2022-12-13T04:12:59;41.00;;;18.48;;
64842;SDS011;51310;52.198;5.422;2022-12-13T04:15:43;51.50;;;23.88;;
64842;SDS011;51310;52.198;5.422;2022-12-13T04:18:13;54.00;;;24.63;;
64842;SDS011;51310;52.198;5.422;2022-12-13T04:20:43;43.58;;;18.85;;
64842;SDS011;51310;52.198;5.422;2022-12-13T04:23:09;41.75;;;19.20;;
64842;SDS011;51310;52.198;5.422;2022-12-13T04:25:35;42.63;;;19.00;;
64842;SDS011;51310;52.198;5.422;2022-12-13T04:28:02;40.05;;;18.38;;
64842;SDS011;51310;52.198;5.422;2022-12-13T04:30:28;37.33;;;17.63;;
64842;SDS011;51310;52.198;5.422;2022-12-13T04:32:54;37.72;;;18.15;;
64842;SDS011;51310;52.198;5.422;2022-12-13T04:35:20;36.15;;;17.38;;
64842;SDS011;51310;52.198;5.422;2022-12-13T04:37:46;35.45;;;17.23;;
64842;SDS011;51310;52.198;5.422;2022-12-13T04:40:12;42.42;;;18.17;;
64842;SDS011;51310;52.198;5.422;2022-12-13T04:42:38;46.40;;;19.05;;
64842;SDS011;51310;52.198;5.422;2022-12-13T04:45:04;44.58;;;18.23;;
64842;SDS011;51310;52.198;5.422;2022-12-13T04:47:32;43.65;;;17.25;;
64842;SDS011;51310;52.198;5.422;2022-12-13T04:49:57;43.60;;;19.23;;
64842;SDS011;51310;52.198;5.422;2022-12-13T04:52:23;36.33;;;18.10;;
64842;SDS011;51310;52.198;5.422;2022-12-13T04:54:49;41.55;;;18.65;;
64842;SDS011;51310;52.198;5.422;2022-12-13T04:57:15;40.85;;;17.40;;
64842;SDS011;51310;52.198;5.422;2022-12-13T04:59:41;37.60;;;17.58;;
64842;SDS011;51310;52.198;5.422;2022-12-13T05:02:10;36.17;;;18.20;;
64842;SDS011;51310;52.198;5.422;2022-12-13T05:04:37;39.03;;;17.75;;
64842;SDS011;51310;52.198;5.422;2022-12-13T05:07:03;37.08;;;17.88;;
64842;SDS011;51310;52.198;5.422;2022-12-13T05:09:29;38.00;;;17.60;;
64842;SDS011;51310;52.198;5.422;2022-12-13T05:11:55;36.08;;;16.75;;
64842;SDS011;51310;52.198;5.422;2022-12-13T05:14:21;41.53;;;18.63;;
64842;SDS011;51310;52.198;5.422;2022-12-13T05:16:47;35.73;;;16.70;;
64842;SDS011;51310;52.198;5.422;2022-12-13T05:19:13;33.28;;;15.50;;
64842;SDS011;51310;52.198;5.422;2022-12-13T05:21:38;36.15;;;16.70;;
64842;SDS011;51310;52.198;5.422;2022-12-13T05:24:04;33.67;;;16.85;;
64842;SDS011;51310;52.198;5.422;2022-12-13T05:26:31;35.88;;;17.60;;
64842;SDS011;51310;52.198;5.422;2022-12-13T05:28:57;39.30;;;17.37;;
64842;SDS011;51310;52.198;5.422;2022-12-13T05:31:24;37.13;;;16.27;;
64842;SDS011;51310;52.198;5.422;2022-12-13T05:33:50;34.85;;;16.42;;
64842;SDS011;51310;52.198;5.422;2022-12-13T05:36:16;35.80;;;18.40;;
64842;SDS011;51310;52.198;5.422;2022-12-13T05:38:43;38.87;;;17.03;;
64842;SDS011;51310;52.198;5.422;2022-12-13T05:41:10;35.70;;;16.67;;
64842;SDS011;51310;52.198;5.422;2022-12-13T05:43:43;38.22;;;16.92;;
64842;SDS011;51310;52.198;5.422;2022-12-13T05:46:10;36.78;;;16.58;;
64842;SDS011;51310;52.198;5.422;2022-12-13T05:48:37;37.00;;;17.05;;
64842;SDS011;51310;52.198;5.422;2022-12-13T05:51:03;38.05;;;16.35;;
64842;SDS011;51310;52.198;5.422;2022-12-13T05:53:29;39.05;;;16.63;;
64842;SDS011;51310;52.198;5.422;2022-12-13T05:55:58;36.85;;;16.70;;
64842;SDS011;51310;52.198;5.422;2022-12-13T05:58:25;36.28;;;17.35;;
64842;SDS011;51310;52.198;5.422;2022-12-13T06:00:51;36.30;;;17.13;;
64842;SDS011;51310;52.198;5.422;2022-12-13T06:03:17;34.63;;;15.85;;
64842;SDS011;51310;52.198;5.422;2022-12-13T06:05:43;34.75;;;16.42;;
64842;SDS011;51310;52.198;5.422;2022-12-13T06:08:09;38.00;;;17.50;;
64842;SDS011;51310;52.198;5.422;2022-12-13T06:10:36;33.60;;;15.38;;
64842;SDS011;51310;52.198;5.422;2022-12-13T06:13:03;33.88;;;16.55;;
64842;SDS011;51310;52.198;5.422;2022-12-13T06:15:30;34.30;;;16.48;;
64842;SDS011;51310;52.198;5.422;2022-12-13T06:17:59;38.67;;;17.25;;
64842;SDS011;51310;52.198;5.422;2022-12-13T06:20:25;36.20;;;17.27;;
64842;SDS011;51310;52.198;5.422;2022-12-13T06:22:52;39.13;;;16.17;;
64842;SDS011;51310;52.198;5.422;2022-12-13T06:25:18;33.63;;;16.17;;
64842;SDS011;51310;52.198;5.422;2022-12-13T06:27:44;38.78;;;16.75;;
64842;SDS011;51310;52.198;5.422;2022-12-13T06:30:10;36.77;;;16.73;;
64842;SDS011;51310;52.198;5.422;2022-12-13T06:32:37;33.45;;;15.70;;
64842;SDS011;51310;52.198;5.422;2022-12-13T06:35:03;30.83;;;16.07;;
64842;SDS011;51310;52.198;5.422;2022-12-13T06:37:29;35.95;;;17.05;;
64842;SDS011;51310;52.198;5.422;2022-12-13T06:39:55;39.40;;;18.57;;
64842;SDS011;51310;52.198;5.422;2022-12-13T06:42:21;33.42;;;16.35;;
64842;SDS011;51310;52.198;5.422;2022-12-13T06:44:46;36.40;;;18.17;;
64842;SDS011;51310;52.198;5.422;2022-12-13T06:47:15;40.80;;;16.98;;
64842;SDS011;51310;52.198;5.422;2022-12-13T06:49:41;36.83;;;17.53;;
64842;SDS011;51310;52.198;5.422;2022-12-13T06:52:10;33.55;;;16.70;;
64842;SDS011;51310;52.198;5.422;2022-12-13T06:54:38;38.83;;;18.90;;
64842;SDS011;51310;52.198;5.422;2022-12-13T06:57:04;37.75;;;17.08;;
64842;SDS011;51310;52.198;5.422;2022-12-13T06:59:30;39.20;;;17.30;;
64842;SDS011;51310;52.198;5.422;2022-12-13T07:01:56;39.73;;;17.90;;
64842;SDS011;51310;52.198;5.422;2022-12-13T07:04:23;35.88;;;17.10;;
64842;SDS011;51310;52.198;5.422;2022-12-13T07:06:49;40.78;;;17.60;;
64842;SDS011;51310;52.198;5.422;2022-12-13T07:09:14;39.55;;;17.95;;
64842;SDS011;51310;52.198;5.422;2022-12-13T07:11:40;39.28;;;17.85;;
64842;SDS011;51310;52.198;5.422;2022-12-13T07:14:06;34.72;;;16.65;;
64842;SDS011;51310;52.198;5.422;2022-12-13T07:16:33;34.13;;;17.77;;
64842;SDS011;51310;52.198;5.422;2022-12-13T07:18:59;38.20;;;17.48;;
64842;SDS011;51310;52.198;5.422;2022-12-13T07:21:27;36.90;;;17.08;;
64842;SDS011;51310;52.198;5.422;2022-12-13T07:23:54;40.50;;;18.05;;
64842;SDS011;51310;52.198;5.422;2022-12-13T07:26:20;40.03;;;17.77;;
64842;SDS011;51310;52.198;5.422;2022-12-13T07:28:46;39.70;;;18.10;;
64842;SDS011;51310;52.198;5.422;2022-12-13T07:31:12;35.78;;;17.83;;
64842;SDS011;51310;52.198;5.422;2022-12-13T07:33:39;36.65;;;17.27;;
64842;SDS011;51310;52.198;5.422;2022-12-13T07:36:12;39.60;;;17.00;;
64842;SDS011;51310;52.198;5.422;2022-12-13T07:38:43;42.88;;;17.88;;
64842;SDS011;51310;52.198;5.422;2022-12-13T07:41:13;34.60;;;16.83;;
64842;SDS011;51310;52.198;5.422;2022-12-13T07:43:39;35.28;;;17.73;;
64842;SDS011;51310;52.198;5.422;2022-12-13T07:46:05;34.63;;;15.80;;
64842;SDS011;51310;52.198;5.422;2022-12-13T07:48:32;39.20;;;17.42;;
64842;SDS011;51310;52.198;5.422;2022-12-13T07:51:02;36.13;;;17.27;;
64842;SDS011;51310;52.198;5.422;2022-12-13T07:53:32;35.67;;;15.50;;
64842;SDS011;51310;52.198;5.422;2022-12-13T07:56:00;48.22;;;18.30;;
64842;SDS011;51310;52.198;5.422;2022-12-13T07:58:32;35.83;;;16.70;;
64842;SDS011;51310;52.198;5.422;2022-12-13T08:00:59;37.03;;;17.40;;
64842;SDS011;51310;52.198;5.422;2022-12-13T08:03:32;39.63;;;18.13;;
64842;SDS011;51310;52.198;5.422;2022-12-13T08:06:00;40.72;;;17.42;;
64842;SDS011;51310;52.198;5.422;2022-12-13T08:08:33;35.30;;;16.98;;
64842;SDS011;51310;52.198;5.422;2022-12-13T08:11:00;37.63;;;18.45;;
64842;SDS011;51310;52.198;5.422;2022-12-13T08:13:34;39.10;;;18.17;;
64842;SDS011;51310;52.198;5.422;2022-12-13T08:16:03;46.17;;;19.43;;
64842;SDS011;51310;52.198;5.422;2022-12-13T08:18:32;42.15;;;18.55;;
64842;SDS011;51310;52.198;5.422;2022-12-13T08:20:59;35.90;;;17.33;;
64842;SDS011;51310;52.198;5.422;2022-12-13T08:23:28;40.90;;;19.33;;
64842;SDS011;51310;52.198;5.422;2022-12-13T08:25:57;38.65;;;17.38;;
64842;SDS011;51310;52.198;5.422;2022-12-13T08:28:24;43.03;;;19.33;;
64842;SDS011;51310;52.198;5.422;2022-12-13T08:30:51;40.00;;;17.77;;
64842;SDS011;51310;52.198;5.422;2022-12-13T08:33:18;37.50;;;17.93;;
64842;SDS011;51310;52.198;5.422;2022-12-13T08:35:44;38.63;;;18.08;;
64842;SDS011;51310;52.198;5.422;2022-12-13T08:38:11;42.28;;;18.95;;
64842;SDS011;51310;52.198;5.422;2022-12-13T08:40:38;37.28;;;18.08;;
64842;SDS011;51310;52.198;5.422;2022-12-13T08:43:04;40.08;;;18.95;;
64842;SDS011;51310;52.198;5.422;2022-12-13T08:45:30;37.88;;;18.55;;
64842;SDS011;51310;52.198;5.422;2022-12-13T08:47:58;37.03;;;18.20;;
64842;SDS011;51310;52.198;5.422;2022-12-13T08:50:26;43.33;;;20.45;;
64842;SDS011;51310;52.198;5.422;2022-12-13T08:52:53;40.92;;;18.02;;
64842;SDS011;51310;52.198;5.422;2022-12-13T08:55:20;40.53;;;18.45;;
64842;SDS011;51310;52.198;5.422;2022-12-13T08:57:46;40.42;;;18.85;;
64842;SDS011;51310;52.198;5.422;2022-12-13T09:00:13;42.37;;;18.83;;
64842;SDS011;51310;52.198;5.422;2022-12-13T09:02:43;38.92;;;19.45;;
64842;SDS011;51310;52.198;5.422;2022-12-13T09:05:09;45.70;;;21.25;;
64842;SDS011;51310;52.198;5.422;2022-12-13T09:07:36;41.83;;;19.73;;
64842;SDS011;51310;52.198;5.422;2022-12-13T09:10:05;41.35;;;19.85;;
64842;SDS011;51310;52.198;5.422;2022-12-13T09:12:35;44.50;;;19.88;;
64842;SDS011;51310;52.198;5.422;2022-12-13T09:15:05;40.65;;;20.58;;
64842;SDS011;51310;52.198;5.422;2022-12-13T09:17:32;47.65;;;21.48;;
64842;SDS011;51310;52.198;5.422;2022-12-13T09:19:58;39.45;;;20.23;;
64842;SDS011;51310;52.198;5.422;2022-12-13T09:22:24;51.03;;;22.80;;
64842;SDS011;51310;52.198;5.422;2022-12-13T09:24:50;45.78;;;21.95;;
64842;SDS011;51310;52.198;5.422;2022-12-13T09:27:16;45.93;;;22.63;;
64842;SDS011;51310;52.198;5.422;2022-12-13T09:29:43;47.92;;;22.92;;
64842;SDS011;51310;52.198;5.422;2022-12-13T09:32:09;50.00;;;22.23;;
64842;SDS011;51310;52.198;5.422;2022-12-13T09:34:34;48.07;;;22.67;;
64842;SDS011;51310;52.198;5.422;2022-12-13T09:37:00;49.77;;;22.97;;
64842;SDS011;51310;52.198;5.422;2022-12-13T09:39:26;46.38;;;22.83;;
64842;SDS011;51310;52.198;5.422;2022-12-13T09:41:53;48.40;;;22.50;;
64842;SDS011;51310;52.198;5.422;2022-12-13T09:44:23;51.10;;;24.58;;
64842;SDS011;51310;52.198;5.422;2022-12-13T09:46:55;54.70;;;24.93;;
64842;SDS011;51310;52.198;5.422;2022-12-13T09:49:28;54.22;;;24.58;;
64842;SDS011;51310;52.198;5.422;2022-12-13T09:52:06;50.47;;;23.88;;
64842;SDS011;51310;52.198;5.422;2022-12-13T09:54:39;50.55;;;24.35;;
64842;SDS011;51310;52.198;5.422;2022-12-13T09:57:17;56.13;;;25.65;;
64842;SDS011;51310;52.198;5.422;2022-12-13T09:59:49;53.05;;;24.80;;
64842;SDS011;51310;52.198;5.422;2022-12-13T10:02:28;53.17;;;24.73;;
64842;SDS011;51310;52.198;5.422;2022-12-13T10:10:47;56.03;;;25.77;;
64842;SDS011;51310;52.198;5.422;2022-12-13T10:13:19;57.95;;;26.05;;
64842;SDS011;51310;52.198;5.422;2022-12-13T10:16:15;59.47;;;26.50;;
64842;SDS011;51310;52.198;5.422;2022-12-13T10:19:00;60.65;;;28.35;;
64842;SDS011;51310;52.198;5.422;2022-12-13T10:21:41;59.20;;;25.33;;
64842;SDS011;51310;52.198;5.422;2022-12-13T10:27:18;60.53;;;28.83;;
64842;SDS011;51310;52.198;5.422;2022-12-13T10:32:52;59.42;;;27.75;;
64842;SDS011;51310;52.198;5.422;2022-12-13T10:37:59;56.92;;;27.27;;
64842;SDS011;51310;52.198;5.422;2022-12-13T10:40:51;56.25;;;26.20;;
64842;SDS011;51310;52.198;5.422;2022-12-13T10:48:33;53.75;;;25.80;;
64842;SDS011;51310;52.198;5.422;2022-12-13T10:51:11;49.80;;;25.50;;
64842;SDS011;51310;52.198;5.422;2022-12-13T10:53:40;51.97;;;24.77;;
64842;SDS011;51310;52.198;5.422;2022-12-13T10:56:22;54.75;;;26.63;;
64842;SDS011;51310;52.198;5.422;2022-12-13T10:59:11;54.75;;;26.42;;
64842;SDS011;51310;52.198;5.422;2022-12-13T11:01:57;50.55;;;26.48;;
64842;SDS011;51310;52.198;5.422;2022-12-13T11:04:32;51.35;;;25.33;;
64842;SDS011;51310;52.198;5.422;2022-12-13T11:07:00;45.88;;;25.13;;
64842;SDS011;51310;52.198;5.422;2022-12-13T11:09:55;53.50;;;25.40;;
64842;SDS011;51310;52.198;5.422;2022-12-13T11:12:24;48.78;;;25.10;;
64842;SDS011;51310;52.198;5.422;2022-12-13T11:17:27;55.65;;;26.48;;
64842;SDS011;51310;52.198;5.422;2022-12-13T11:20:18;50.60;;;24.30;;
64842;SDS011;51310;52.198;5.422;2022-12-13T11:25:43;55.05;;;26.33;;
64842;SDS011;51310;52.198;5.422;2022-12-13T11:34:13;56.15;;;25.20;;
64842;SDS011;51310;52.198;5.422;2022-12-13T11:40:26;51.55;;;24.67;;
64842;SDS011;51310;52.198;5.422;2022-12-13T11:43:19;54.80;;;25.73;;
64842;SDS011;51310;52.198;5.422;2022-12-13T11:46:18;51.13;;;24.92;;
64842;SDS011;51310;52.198;5.422;2022-12-13T11:49:02;51.70;;;25.58;;
64842;SDS011;51310;52.198;5.422;2022-12-13T11:51:45;50.00;;;24.35;;
64842;SDS011;51310;52.198;5.422;2022-12-13T12:01:08;50.17;;;24.80;;
64842;SDS011;51310;52.198;5.422;2022-12-13T12:03:48;47.10;;;23.85;;
64842;SDS011;51310;52.198;5.422;2022-12-13T12:06:31;50.55;;;24.20;;
64842;SDS011;51310;52.198;5.422;2022-12-13T12:09:14;45.92;;;23.85;;
64842;SDS011;51310;52.198;5.422;2022-12-13T12:11:58;49.40;;;24.13;;
64842;SDS011;51310;52.198;5.422;2022-12-13T12:14:40;46.10;;;24.13;;
64842;SDS011;51310;52.198;5.422;2022-12-13T12:17:19;51.33;;;24.20;;
64842;SDS011;51310;52.198;5.422;2022-12-13T12:19:50;47.30;;;24.00;;
64842;SDS011;51310;52.198;5.422;2022-12-13T12:34:28;50.22;;;23.92;;
64842;SDS011;51310;52.198;5.422;2022-12-13T12:43:31;49.83;;;24.45;;
64842;SDS011;51310;52.198;5.422;2022-12-13T12:58:53;54.10;;;26.50;;
64842;SDS011;51310;52.198;5.422;2022-12-13T13:01:55;49.20;;;25.33;;
64842;SDS011;51310;52.198;5.422;2022-12-13T13:04:57;52.45;;;26.38;;
64842;SDS011;51310;52.198;5.422;2022-12-13T13:07:40;53.65;;;26.27;;
64842;SDS011;51310;52.198;5.422;2022-12-13T13:10:19;63.20;;;28.27;;
64842;SDS011;51310;52.198;5.422;2022-12-13T13:12:46;61.30;;;30.07;;
64842;SDS011;51310;52.198;5.422;2022-12-13T13:17:57;57.80;;;28.88;;
64842;SDS011;51310;52.198;5.422;2022-12-13T13:20:25;61.50;;;29.60;;
64842;SDS011;51310;52.198;5.422;2022-12-13T13:22:56;60.83;;;28.67;;
64842;SDS011;51310;52.198;5.422;2022-12-13T13:25:26;60.13;;;28.73;;
64842;SDS011;51310;52.198;5.422;2022-12-13T13:28:01;55.58;;;27.23;;
64842;SDS011;51310;52.198;5.422;2022-12-13T13:39:16;61.25;;;28.08;;
64842;SDS011;51310;52.198;5.422;2022-12-13T13:42:22;58.70;;;27.02;;
64842;SDS011;51310;52.198;5.422;2022-12-13T13:47:16;58.60;;;27.13;;
64842;SDS011;51310;52.198;5.422;2022-12-13T13:52:45;113.30;;;50.35;;
64842;SDS011;51310;52.198;5.422;2022-12-13T14:02:41;57.80;;;27.55;;
64842;SDS011;51310;52.198;5.422;2022-12-13T14:09:48;60.00;;;27.30;;
64842;SDS011;51310;52.198;5.422;2022-12-13T14:30:31;53.30;;;24.85;;
64842;SDS011;51310;52.198;5.422;2022-12-13T14:32:57;53.28;;;25.35;;
64842;SDS011;51310;52.198;5.422;2022-12-13T14:35:31;51.78;;;26.20;;
64842;SDS011;51310;52.198;5.422;2022-12-13T14:38:18;54.28;;;28.00;;
64842;SDS011;51310;52.198;5.422;2022-12-13T14:40:56;59.83;;;28.30;;
64842;SDS011;51310;52.198;5.422;2022-12-13T14:43:27;57.63;;;27.45;;
64842;SDS011;51310;52.198;5.422;2022-12-13T14:46:02;56.80;;;28.80;;
64842;SDS011;51310;52.198;5.422;2022-12-13T14:48:52;57.57;;;26.83;;
64842;SDS011;51310;52.198;5.422;2022-12-13T14:54:03;54.83;;;27.00;;
64842;SDS011;51310;52.198;5.422;2022-12-13T14:56:32;65.37;;;30.30;;
64842;SDS011;51310;52.198;5.422;2022-12-13T14:59:02;55.47;;;26.40;;
64842;SDS011;51310;52.198;5.422;2022-12-13T15:01:42;54.23;;;27.13;;
64842;SDS011;51310;52.198;5.422;2022-12-13T15:07:01;51.47;;;25.88;;
64842;SDS011;51310;52.198;5.422;2022-12-13T15:10:03;49.65;;;24.17;;
64842;SDS011;51310;52.198;5.422;2022-12-13T15:12:39;54.97;;;25.17;;
64842;SDS011;51310;52.198;5.422;2022-12-13T15:15:16;54.05;;;24.58;;
64842;SDS011;51310;52.198;5.422;2022-12-13T15:20:37;53.30;;;26.17;;
64842;SDS011;51310;52.198;5.422;2022-12-13T15:26:01;43.92;;;22.52;;
64842;SDS011;51310;52.198;5.422;2022-12-13T15:28:41;50.60;;;24.10;;
64842;SDS011;51310;52.198;5.422;2022-12-13T15:31:10;47.42;;;23.20;;
64842;SDS011;51310;52.198;5.422;2022-12-13T15:33:38;46.25;;;22.55;;
64842;SDS011;51310;52.198;5.422;2022-12-13T15:36:06;50.22;;;23.40;;
64842;SDS011;51310;52.198;5.422;2022-12-13T15:41:21;43.22;;;21.45;;
64842;SDS011;51310;52.198;5.422;2022-12-13T15:44:05;47.05;;;21.20;;
64842;SDS011;51310;52.198;5.422;2022-12-13T15:46:45;44.67;;;20.97;;
64842;SDS011;51310;52.198;5.422;2022-12-13T15:49:26;48.03;;;21.52;;
64842;SDS011;51310;52.198;5.422;2022-12-13T15:54:40;45.83;;;21.85;;
64842;SDS011;51310;52.198;5.422;2022-12-13T15:57:52;48.97;;;22.48;;
64842;SDS011;51310;52.198;5.422;2022-12-13T16:00:25;48.65;;;22.83;;
64842;SDS011;51310;52.198;5.422;2022-12-13T16:02:56;46.53;;;22.17;;
64842;SDS011;51310;52.198;5.422;2022-12-13T16:05:36;47.92;;;21.27;;
64842;SDS011;51310;52.198;5.422;2022-12-13T16:10:55;46.33;;;22.23;;
64842;SDS011;51310;52.198;5.422;2022-12-13T16:13:24;44.13;;;20.83;;
64842;SDS011;51310;52.198;5.422;2022-12-13T16:16:01;43.72;;;21.73;;
64842;SDS011;51310;52.198;5.422;2022-12-13T16:18:55;49.47;;;21.77;;
64842;SDS011;51310;52.198;5.422;2022-12-13T16:21:24;50.97;;;23.25;;
64842;SDS011;51310;52.198;5.422;2022-12-13T16:23:52;51.95;;;23.48;;
64842;SDS011;51310;52.198;5.422;2022-12-13T16:26:26;49.70;;;22.03;;
64842;SDS011;51310;52.198;5.422;2022-12-13T16:28:53;45.15;;;20.52;;
64842;SDS011;51310;52.198;5.422;2022-12-13T16:31:23;48.13;;;22.25;;
64842;SDS011;51310;52.198;5.422;2022-12-13T16:33:59;47.13;;;21.77;;
64842;SDS011;51310;52.198;5.422;2022-12-13T16:36:29;52.55;;;22.77;;
64842;SDS011;51310;52.198;5.422;2022-12-13T16:38:55;47.35;;;22.92;;
64842;SDS011;51310;52.198;5.422;2022-12-13T16:41:21;52.22;;;22.63;;
64842;SDS011;51310;52.198;5.422;2022-12-13T16:46:23;53.10;;;21.87;;
64842;SDS011;51310;52.198;5.422;2022-12-13T16:48:49;43.30;;;20.70;;
64842;SDS011;51310;52.198;5.422;2022-12-13T16:51:17;45.92;;;21.23;;
64842;SDS011;51310;52.198;5.422;2022-12-13T16:53:43;50.00;;;22.23;;
64842;SDS011;51310;52.198;5.422;2022-12-13T16:56:09;47.30;;;21.63;;
64842;SDS011;51310;52.198;5.422;2022-12-13T16:58:38;46.78;;;22.83;;
64842;SDS011;51310;52.198;5.422;2022-12-13T17:01:08;55.03;;;23.88;;
64842;SDS011;51310;52.198;5.422;2022-12-13T17:03:36;51.85;;;23.17;;
64842;SDS011;51310;52.198;5.422;2022-12-13T17:06:03;49.80;;;23.30;;
64842;SDS011;51310;52.198;5.422;2022-12-13T17:08:31;46.70;;;22.67;;
64842;SDS011;51310;52.198;5.422;2022-12-13T17:10:58;49.85;;;22.30;;
64842;SDS011;51310;52.198;5.422;2022-12-13T17:13:24;53.33;;;23.13;;
64842;SDS011;51310;52.198;5.422;2022-12-13T17:15:51;52.55;;;21.73;;
64842;SDS011;51310;52.198;5.422;2022-12-13T17:18:17;49.20;;;21.70;;
64842;SDS011;51310;52.198;5.422;2022-12-13T17:20:43;43.25;;;21.30;;
64842;SDS011;51310;52.198;5.422;2022-12-13T17:23:11;44.97;;;21.52;;
64842;SDS011;51310;52.198;5.422;2022-12-13T17:25:37;46.50;;;22.33;;
64842;SDS011;51310;52.198;5.422;2022-12-13T17:28:05;51.85;;;21.58;;
64842;SDS011;51310;52.198;5.422;2022-12-13T17:30:31;44.95;;;20.67;;
64842;SDS011;51310;52.198;5.422;2022-12-13T17:33:03;49.67;;;23.67;;